createdAt,value
2018-06-05T00:00:08.311Z,17.41
2018-06-05T00:02:50.280Z,17.40
2018-06-05T00:05:27.865Z,17.34
2018-06-05T00:08:23.788Z,17.35
2018-06-05T00:11:37.642Z,17.31
2018-06-05T00:14:29.258Z,17.26
2018-06-05T00:17:06.171Z,17.18
2018-06-05T00:19:36.767Z,17.10
2018-06-05T00:22:25.243Z,17.06
2018-06-05T00:25:02.284Z,17.01
2018-06-05T00:27:37.932Z,16.98
2018-06-05T00:30:22.638Z,16.96
2018-06-05T00:33:03.058Z,16.97
2018-06-05T00:35:34.470Z,16.95
2018-06-05T00:38:12.463Z,16.88
2018-06-05T00:40:44.022Z,16.85
2018-06-05T00:43:21.419Z,16.81
2018-06-05T00:45:59.103Z,16.80
2018-06-05T00:48:35.807Z,16.77
2018-06-05T00:54:19.673Z,16.72
2018-06-05T00:56:52.428Z,16.66
2018-06-05T00:59:24.262Z,16.63
2018-06-05T01:01:54.339Z,16.62
2018-06-05T01:04:48.583Z,16.57
2018-06-05T01:07:28.162Z,16.51
2018-06-05T01:10:18.471Z,16.45
2018-06-05T01:15:39.258Z,16.42
2018-06-05T01:18:12.427Z,16.49
2018-06-05T01:20:44.301Z,16.58
2018-06-05T01:23:28.168Z,16.64
2018-06-05T01:26:10.888Z,16.72
2018-06-05T01:28:48.227Z,16.76
2018-06-05T01:31:27.857Z,16.78
2018-06-05T01:34:07.408Z,16.85
2018-06-05T01:36:46.410Z,16.96
2018-06-05T01:39:20.256Z,16.96
2018-06-05T01:41:58.598Z,16.91
2018-06-05T01:44:36.495Z,16.92
2018-06-05T01:47:13.739Z,16.89
2018-06-05T01:50:05.266Z,16.90
2018-06-05T01:52:44.333Z,16.91
2018-06-05T01:55:40.312Z,16.91
2018-06-05T01:59:00.458Z,16.95
2018-06-05T02:01:34.643Z,16.99
2018-06-05T02:04:05.010Z,17.03
2018-06-05T02:06:35.638Z,17.04
2018-06-05T02:09:13.583Z,17.09
2018-06-05T02:11:46.095Z,17.17
2018-06-05T02:14:20.757Z,17.24
2018-06-05T02:17:05.338Z,17.29
2018-06-05T02:19:41.673Z,17.38
2018-06-05T02:22:22.400Z,17.47
2018-06-05T02:24:56.766Z,17.47
2018-06-05T02:27:46.154Z,17.49
2018-06-05T02:30:21.611Z,17.43
2018-06-05T02:33:02.312Z,17.42
2018-06-05T02:35:53.471Z,17.45
2018-06-05T02:42:11.640Z,17.41
2018-06-05T02:44:53.776Z,17.38
2018-06-05T02:47:44.531Z,17.31
2018-06-05T02:50:33.393Z,17.26
2018-06-05T02:53:09.955Z,17.17
2018-06-05T02:55:48.222Z,17.14
2018-06-05T02:58:32.407Z,17.09
2018-06-05T03:01:08.759Z,17.07
2018-06-05T03:03:42.399Z,17.08
2018-06-05T03:06:14.135Z,17.06
2018-06-05T03:08:49.655Z,17.05
2018-06-05T03:11:19.561Z,17.07
2018-06-05T03:13:50.663Z,17.08
2018-06-05T03:16:21.279Z,17.09
2018-06-05T03:18:52.765Z,17.07
2018-06-05T03:21:23.525Z,17.05
2018-06-05T03:23:59.814Z,17.00
2018-06-05T03:26:30.835Z,16.90
2018-06-05T03:29:02.663Z,16.84
2018-06-05T03:31:37.951Z,16.82
2018-06-05T03:34:15.521Z,16.81
2018-06-05T03:36:46.499Z,16.81
2018-06-05T03:39:20.846Z,16.81
2018-06-05T03:41:54.497Z,16.79
2018-06-05T03:44:29.317Z,16.81
2018-06-05T03:47:07.743Z,16.80
2018-06-05T03:49:57.069Z,16.77
2018-06-05T03:52:31.237Z,16.79
2018-06-05T03:55:20.124Z,16.82
2018-06-05T03:57:50.750Z,16.83
2018-06-05T04:00:24.762Z,16.86
2018-06-05T04:02:55.265Z,16.87
2018-06-05T04:05:28.691Z,16.90
2018-06-05T04:08:03.048Z,16.89
2018-06-05T04:10:34.561Z,16.90
2018-06-05T04:13:19.936Z,16.89
2018-06-05T04:15:56.922Z,16.91
2018-06-05T04:18:31.610Z,16.96
2018-06-05T04:21:02.892Z,16.98
2018-06-05T04:23:44.167Z,17.03
2018-06-05T04:26:16.898Z,17.08
2018-06-05T04:28:53.595Z,17.19
2018-06-05T04:31:25.175Z,17.29
2018-06-05T04:34:07.044Z,17.38
2018-06-05T04:36:43.450Z,17.56
2018-06-05T04:39:17.953Z,17.83
2018-06-05T04:41:58.428Z,18.22
2018-06-05T04:44:42.694Z,18.75
2018-06-05T04:47:14.129Z,19.26
2018-06-05T04:49:45.755Z,19.35
2018-06-05T04:52:23.494Z,19.28
2018-06-05T04:54:54.079Z,19.01
2018-06-05T04:57:25.978Z,18.93
2018-06-05T04:59:57.413Z,19.21
2018-06-05T05:02:33.470Z,19.46
2018-06-05T05:05:07.502Z,19.39
2018-06-05T05:07:38.110Z,19.52
2018-06-05T05:10:15.213Z,19.93
2018-06-05T05:12:51.684Z,20.19
2018-06-05T05:15:33.043Z,20.39
2018-06-05T05:18:04.243Z,20.65
2018-06-05T05:20:43.129Z,20.62
2018-06-05T05:23:15.735Z,20.95
2018-06-05T05:25:51.691Z,20.71
2018-06-05T05:28:33.367Z,20.78
2018-06-05T05:31:03.950Z,21.13
2018-06-05T05:33:56.467Z,21.20
2018-06-05T05:36:27.175Z,21.40
2018-06-05T05:39:07.162Z,22.36
2018-06-05T05:41:42.561Z,23.13
2018-06-05T05:44:18.923Z,22.67
2018-06-05T05:46:50.536Z,22.65
2018-06-05T05:49:27.867Z,22.13
2018-06-05T05:52:04.038Z,21.39
2018-06-05T05:54:37.135Z,20.82
2018-06-05T05:57:12.422Z,20.75
2018-06-05T05:59:49.237Z,21.48
2018-06-05T06:02:23.406Z,22.19
2018-06-05T06:04:53.938Z,23.78
2018-06-05T06:07:36.436Z,23.72
2018-06-05T06:10:13.791Z,23.59
2018-06-05T06:13:01.272Z,22.75
2018-06-05T06:15:37.484Z,22.56
2018-06-05T06:18:11.481Z,21.75
2018-06-05T06:20:47.617Z,21.65
2018-06-05T06:23:23.558Z,21.07
2018-06-05T06:26:03.602Z,21.27
2018-06-05T06:28:34.066Z,20.93
2018-06-05T06:31:10.022Z,21.06
2018-06-05T06:33:40.718Z,21.27
2018-06-05T06:36:11.661Z,21.09
2018-06-05T06:38:42.287Z,20.93
2018-06-05T06:41:18.738Z,21.31
2018-06-05T06:43:53.462Z,21.46
2018-06-05T06:46:27.415Z,21.38
2018-06-05T06:49:03.616Z,21.55
2018-06-05T06:51:46.742Z,21.38
2018-06-05T06:54:17.783Z,21.95
2018-06-05T06:56:56.512Z,22.10
2018-06-05T06:59:34.517Z,21.77
2018-06-05T07:02:12.291Z,21.47
2018-06-05T07:04:54.460Z,21.80
2018-06-05T07:07:44.534Z,22.31
2018-06-05T07:10:15.190Z,23.07
2018-06-05T07:12:46.534Z,23.49
2018-06-05T07:15:17.791Z,23.84
2018-06-05T07:17:53.459Z,23.86
2018-06-05T07:20:25.966Z,22.75
2018-06-05T07:23:07.499Z,22.85
2018-06-05T07:25:43.845Z,22.67
2018-06-05T07:28:27.435Z,22.68
2018-06-05T07:31:01.903Z,22.16
2018-06-05T07:33:57.210Z,23.39
2018-06-05T07:36:38.827Z,24.62
2018-06-05T07:39:19.803Z,25.20
2018-06-05T07:41:52.361Z,24.87
2018-06-05T07:44:24.396Z,24.53
2018-06-05T07:46:56.728Z,23.31
2018-06-05T07:49:43.584Z,23.28
2018-06-05T07:52:14.243Z,23.39
2018-06-05T07:54:45.919Z,24.25
2018-06-05T07:57:19.612Z,25.98
2018-06-05T08:00:02.122Z,26.63
2018-06-05T08:02:34.543Z,26.40
2018-06-05T08:05:11.327Z,25.00
2018-06-05T08:07:42.601Z,24.21
2018-06-05T08:10:14.097Z,24.31
2018-06-05T08:12:51.750Z,24.56
2018-06-05T08:15:22.539Z,26.25
2018-06-05T08:17:53.115Z,27.30
2018-06-05T08:20:36.538Z,26.90
2018-06-05T08:23:08.871Z,27.49
2018-06-05T08:25:50.738Z,26.77
2018-06-05T08:28:21.367Z,28.10
2018-06-05T08:30:55.739Z,28.49
2018-06-05T08:33:38.446Z,29.16
2018-06-05T08:36:16.325Z,29.03
2018-06-05T08:38:47.253Z,29.02
2018-06-05T08:41:19.718Z,28.51
2018-06-05T08:44:04.355Z,29.48
2018-06-05T08:46:37.184Z,29.65
2018-06-05T08:49:09.116Z,30.30
2018-06-05T08:51:43.834Z,30.33
2018-06-05T08:54:36.783Z,29.50
2018-06-05T08:57:08.838Z,28.07
2018-06-05T08:59:39.989Z,28.94
2018-06-05T09:02:17.516Z,30.05
2018-06-05T09:04:56.298Z,28.82
2018-06-05T09:07:30.415Z,28.67
2018-06-05T09:10:05.069Z,25.93
2018-06-05T09:12:41.303Z,28.03
2018-06-05T09:15:22.610Z,28.53
2018-06-05T09:18:03.279Z,29.68
2018-06-05T09:20:34.659Z,28.84
2018-06-05T09:23:09.285Z,28.34
2018-06-05T09:25:40.934Z,28.52
2018-06-05T09:28:11.542Z,28.21
2018-06-05T09:30:42.252Z,28.40
2018-06-05T09:33:13.860Z,28.17
2018-06-05T09:36:02.538Z,28.10
2018-06-05T09:38:47.141Z,29.76
2018-06-05T09:41:20.488Z,29.46
2018-06-05T09:43:51.370Z,29.58
2018-06-05T09:46:25.111Z,28.79
2018-06-05T09:49:01.925Z,30.05
2018-06-05T09:51:52.824Z,29.45
2018-06-05T09:54:27.279Z,29.67
2018-06-05T09:57:16.932Z,28.42
2018-06-05T10:00:00.641Z,29.52
2018-06-05T10:02:36.180Z,30.10
2018-06-05T10:05:11.371Z,30.44
2018-06-05T10:07:47.619Z,30.08
2018-06-05T10:10:34.046Z,30.22
2018-06-05T10:13:14.630Z,28.68
2018-06-05T10:15:52.922Z,29.65
2018-06-05T10:18:33.403Z,30.03
2018-06-05T10:21:05.019Z,29.26
2018-06-05T10:23:38.992Z,31.03
2018-06-05T10:26:09.900Z,31.10
2018-06-05T10:28:53.415Z,30.09
2018-06-05T10:31:26.486Z,30.12
2018-06-05T10:34:01.647Z,29.68
2018-06-05T10:36:36.948Z,29.27
2018-06-05T10:39:10.034Z,30.49
2018-06-05T10:41:43.462Z,32.34
2018-06-05T10:44:27.957Z,32.31
2018-06-05T10:46:58.327Z,29.63
2018-06-05T10:49:29.727Z,31.90
2018-06-05T10:52:04.708Z,32.96
2018-06-05T10:54:37.301Z,33.09
2018-06-05T10:57:12.181Z,32.55
2018-06-05T10:59:43.592Z,31.86
2018-06-05T11:02:22.651Z,33.14
2018-06-05T11:04:58.899Z,34.82
2018-06-05T11:07:48.407Z,34.43
2018-06-05T11:10:22.228Z,33.40
2018-06-05T11:13:05.706Z,34.56
2018-06-05T11:15:36.338Z,33.83
2018-06-05T11:18:15.102Z,34.99
2018-06-05T11:20:46.802Z,33.05
2018-06-05T11:23:17.643Z,31.89
2018-06-05T11:25:48.311Z,33.81
2018-06-05T11:28:19.791Z,32.38
2018-06-05T11:30:51.686Z,33.02
2018-06-05T11:33:24.584Z,34.40
2018-06-05T11:35:56.333Z,33.78
2018-06-05T11:38:31.918Z,33.42
2018-06-05T11:41:02.606Z,34.45
2018-06-05T11:43:51.273Z,34.65
2018-06-05T11:46:33.111Z,35.82
2018-06-05T11:49:42.974Z,32.97
2018-06-05T11:52:16.774Z,36.92
2018-06-05T11:54:53.727Z,38.10
2018-06-05T11:57:33.195Z,38.83
2018-06-05T12:00:13.827Z,37.44
2018-06-05T12:02:50.942Z,35.13
2018-06-05T12:05:30.289Z,36.83
2018-06-05T12:08:01.995Z,37.94
2018-06-05T12:10:34.588Z,38.01
2018-06-05T12:13:06.933Z,38.79
2018-06-05T12:15:46.367Z,38.41
2018-06-05T12:18:17.602Z,39.27
2018-06-05T12:20:54.455Z,37.72
2018-06-05T12:23:29.974Z,37.52
2018-06-05T12:26:04.800Z,37.52
2018-06-05T12:28:35.378Z,38.11
2018-06-05T12:31:05.779Z,38.69
2018-06-05T12:33:36.014Z,39.08
2018-06-05T12:36:06.309Z,40.66
2018-06-05T12:38:38.902Z,39.89
2018-06-05T12:41:14.910Z,36.72
2018-06-05T12:43:45.406Z,37.05
2018-06-05T12:46:22.888Z,38.40
2018-06-05T12:48:53.627Z,39.84
2018-06-05T12:51:25.898Z,39.73
2018-06-05T12:53:57.273Z,37.54
2018-06-05T12:56:44.769Z,40.10
2018-06-05T12:59:32.389Z,39.17
2018-06-05T13:02:03.487Z,37.85
2018-06-05T13:04:39.291Z,35.59
2018-06-05T13:07:31.006Z,36.93
2018-06-05T13:10:04.536Z,40.29
2018-06-05T13:12:36.754Z,40.83
2018-06-05T13:15:12.119Z,39.89
2018-06-05T13:21:05.625Z,40.84
2018-06-05T13:23:41.948Z,38.22
2018-06-05T13:26:13.195Z,39.64
2018-06-05T13:28:47.805Z,41.42
2018-06-05T13:31:18.575Z,42.96
2018-06-05T13:33:58.130Z,40.80
2018-06-05T13:36:31.057Z,38.41
2018-06-05T13:39:16.974Z,41.11
2018-06-05T13:41:50.147Z,41.69
2018-06-05T13:44:20.553Z,40.14
2018-06-05T13:47:02.210Z,42.57
2018-06-05T13:49:39.948Z,41.94
2018-06-05T13:52:12.320Z,38.06
2018-06-05T13:54:49.794Z,36.52
2018-06-05T13:57:38.346Z,38.00
2018-06-05T14:00:20.063Z,38.00
2018-06-05T14:02:51.235Z,39.57
2018-06-05T14:05:30.082Z,37.10
2018-06-05T14:08:10.147Z,37.36
2018-06-05T14:10:42.894Z,40.41
2018-06-05T14:13:18.622Z,39.51
2018-06-05T14:15:53.245Z,38.73
2018-06-05T14:18:27.131Z,40.97
2018-06-05T14:21:00.964Z,39.25
2018-06-05T14:23:37.959Z,38.46
2018-06-05T14:26:11.868Z,37.53
2018-06-05T14:28:49.392Z,38.64
2018-06-05T14:31:23.165Z,36.98
2018-06-05T14:33:56.101Z,38.17
2018-06-05T14:36:27.783Z,37.76
2018-06-05T14:39:04.610Z,38.32
2018-06-05T14:41:40.932Z,38.86
2018-06-05T14:44:16.319Z,38.06
2018-06-05T14:46:55.043Z,39.61
2018-06-05T14:49:29.074Z,40.94
2018-06-05T14:52:06.196Z,36.91
2018-06-05T14:54:40.986Z,36.79
2018-06-05T14:57:22.658Z,37.59
2018-06-05T14:59:59.902Z,37.94
2018-06-05T15:02:39.325Z,37.74
2018-06-05T15:05:18.555Z,39.11
2018-06-05T15:07:58.279Z,41.27
2018-06-05T15:10:37.023Z,41.34
2018-06-05T15:13:12.076Z,40.93
2018-06-05T15:15:47.566Z,42.05
2018-06-05T15:18:25.111Z,39.42
2018-06-05T15:20:57.890Z,39.48
2018-06-05T15:23:36.962Z,38.56
2018-06-05T15:26:15.856Z,41.09
2018-06-05T15:28:48.249Z,41.37
2018-06-05T15:31:22.508Z,41.31
2018-06-05T15:33:56.380Z,35.04
2018-06-05T15:36:28.514Z,34.75
2018-06-05T15:39:03.793Z,37.38
2018-06-05T15:41:55.719Z,38.77
2018-06-05T15:44:38.713Z,38.18
2018-06-05T15:47:28.879Z,39.24
2018-06-05T15:50:07.515Z,40.16
2018-06-05T15:52:42.149Z,40.03
2018-06-05T15:55:14.539Z,40.65
2018-06-05T15:58:02.343Z,38.09
2018-06-05T16:00:37.229Z,37.05
2018-06-05T16:03:10.528Z,36.54
2018-06-05T16:05:44.650Z,36.52
2018-06-05T16:08:17.005Z,35.79
2018-06-05T16:10:54.305Z,37.29
2018-06-05T16:13:27.167Z,37.11
2018-06-05T16:16:00.524Z,36.42
2018-06-05T16:18:40.940Z,37.68
2018-06-05T16:21:22.989Z,36.85
2018-06-05T16:27:08.229Z,36.86
2018-06-05T16:29:47.187Z,37.00
2018-06-05T16:32:38.948Z,35.59
2018-06-05T16:35:10.349Z,35.39
2018-06-05T16:37:43.153Z,34.77
2018-06-05T16:40:20.093Z,34.33
2018-06-05T16:43:04.562Z,34.49
2018-06-05T16:45:45.273Z,33.80
2018-06-05T16:48:17.131Z,32.26
2018-06-05T16:50:48.286Z,31.19
2018-06-05T16:53:20.571Z,31.53
2018-06-05T16:55:54.960Z,31.25
2018-06-05T16:58:27.528Z,31.11
2018-06-05T17:01:06.082Z,31.55
2018-06-05T17:03:38.387Z,30.76
2018-06-05T17:06:13.903Z,30.91
2018-06-05T17:08:44.258Z,31.27
2018-06-05T17:11:16.474Z,31.51
2018-06-05T17:13:52.707Z,31.52
2018-06-05T17:16:23.142Z,31.08
2018-06-05T17:18:59.638Z,31.11
2018-06-05T17:21:40.990Z,31.29
2018-06-05T17:24:12.959Z,31.13
2018-06-05T17:26:43.126Z,31.62
2018-06-05T17:29:14.674Z,31.89
2018-06-05T17:31:47.669Z,32.23
2018-06-05T17:34:23.032Z,32.51
2018-06-05T17:36:53.898Z,32.50
2018-06-05T17:39:30.318Z,33.21
2018-06-05T17:42:05.677Z,33.22
2018-06-05T17:44:39.333Z,33.60
2018-06-05T17:47:11.502Z,33.49
2018-06-05T17:49:47.706Z,33.16
2018-06-05T17:52:18.300Z,34.58
2018-06-05T17:54:51.204Z,34.95
2018-06-05T17:57:22.355Z,34.63
2018-06-05T17:59:54.404Z,33.81
2018-06-05T18:02:30.433Z,33.58
2018-06-05T18:05:11.682Z,33.35
2018-06-05T18:07:44.159Z,33.84
2018-06-05T18:10:20.683Z,34.00
2018-06-05T18:12:54.204Z,33.30
2018-06-05T18:15:28.825Z,32.97
2018-06-05T18:20:55.908Z,30.80
2018-06-05T18:23:29.388Z,31.64
2018-06-05T18:26:04.077Z,31.90
2018-06-05T18:29:02.644Z,31.26
2018-06-05T18:31:41.101Z,30.91
2018-06-05T18:34:42.750Z,30.08
2018-06-05T18:37:14.889Z,29.10
2018-06-05T18:39:46.340Z,28.19
2018-06-05T18:42:20.982Z,27.44
2018-06-05T18:44:53.651Z,26.79
2018-06-05T18:47:38.482Z,26.38
2018-06-05T18:50:19.138Z,25.85
2018-06-05T18:52:58.031Z,25.55
2018-06-05T18:55:42.944Z,25.13
2018-06-05T18:58:19.164Z,24.81
2018-06-05T19:00:51.556Z,24.57
2018-06-05T19:03:23.760Z,24.40
2018-06-05T19:06:23.050Z,24.23
2018-06-05T19:09:03.197Z,24.09
2018-06-05T19:11:38.309Z,23.98
2018-06-05T19:14:10.265Z,23.81
2018-06-05T19:17:00.383Z,23.69
2018-06-05T19:19:44.778Z,23.55
2018-06-05T19:22:43.437Z,23.37
2018-06-05T19:25:39.188Z,23.25
2018-06-05T19:28:18.303Z,23.14
2018-06-05T19:30:51.717Z,23.06
2018-06-05T19:33:24.140Z,22.99
2018-06-05T19:36:06.000Z,22.93
2018-06-05T19:38:41.924Z,22.87
2018-06-05T19:41:19.228Z,22.81
2018-06-05T19:44:02.668Z,22.78
2018-06-05T19:46:48.376Z,22.76
2018-06-05T19:49:24.245Z,22.68
2018-06-05T19:51:58.117Z,22.61
2018-06-05T19:54:34.424Z,22.42
2018-06-05T19:57:09.531Z,22.33
2018-06-05T19:59:40.176Z,22.23
2018-06-05T20:02:16.268Z,22.16
2018-06-05T20:04:54.007Z,22.18
2018-06-05T20:07:25.218Z,22.15
2018-06-05T20:10:10.199Z,22.13
2018-06-05T20:12:45.744Z,22.05
2018-06-05T20:15:21.222Z,22.07
2018-06-05T20:17:59.669Z,22.21
2018-06-05T20:20:41.141Z,22.21
2018-06-05T20:23:15.916Z,22.11
2018-06-05T20:25:51.179Z,22.07
2018-06-05T20:28:26.474Z,22.03
2018-06-05T20:31:00.870Z,22.02
2018-06-05T20:33:34.437Z,22.07
2018-06-05T20:36:05.999Z,22.05
2018-06-05T20:38:36.670Z,22.03
2018-06-05T20:41:10.935Z,21.99
2018-06-05T20:43:42.510Z,21.92
2018-06-05T20:46:14.046Z,21.86
2018-06-05T20:48:48.515Z,21.86
2018-06-05T20:51:21.511Z,21.79
2018-06-05T20:53:55.520Z,21.78
2018-06-05T20:56:27.301Z,21.78
2018-06-05T20:59:03.331Z,21.66
2018-06-05T21:01:40.847Z,21.59
2018-06-05T21:04:13.422Z,21.56
2018-06-05T21:06:43.831Z,21.48
2018-06-05T21:09:18.344Z,21.31
2018-06-05T21:11:55.933Z,21.07
2018-06-05T21:14:28.421Z,20.81
2018-06-05T21:17:06.144Z,20.72
2018-06-05T21:19:40.640Z,20.72
2018-06-05T21:22:17.811Z,20.79
2018-06-05T21:24:52.466Z,20.97
2018-06-05T21:27:28.751Z,21.15
2018-06-05T21:30:04.653Z,21.27
2018-06-05T21:32:49.382Z,21.29
2018-06-05T21:35:29.966Z,21.88
2018-06-05T21:38:05.238Z,22.14
2018-06-05T21:40:37.173Z,22.12
2018-06-05T21:43:14.141Z,22.08
2018-06-05T21:45:46.028Z,21.97
2018-06-05T21:48:26.243Z,21.78
2018-06-05T21:51:02.442Z,21.79
2018-06-05T21:53:38.937Z,21.72
2018-06-05T21:56:10.689Z,21.54
2018-06-05T21:58:47.525Z,21.33
2018-06-05T22:01:21.784Z,21.13
2018-06-05T22:03:54.271Z,20.97
2018-06-05T22:06:25.592Z,20.90
2018-06-05T22:09:11.532Z,20.79
2018-06-05T22:11:45.742Z,20.92
2018-06-05T22:14:18.250Z,20.77
2018-06-05T22:16:50.806Z,20.54
2018-06-05T22:19:28.673Z,20.43
2018-06-05T22:21:59.835Z,20.36
2018-06-05T22:24:31.081Z,20.39
2018-06-05T22:27:07.966Z,20.34
2018-06-05T22:29:43.968Z,20.27
2018-06-05T22:32:17.942Z,20.09
2018-06-05T22:34:49.981Z,19.89
2018-06-05T22:37:36.566Z,19.89
2018-06-05T22:40:19.283Z,19.92
2018-06-05T22:43:02.278Z,19.96
2018-06-05T22:45:39.668Z,20.11
2018-06-05T22:48:21.398Z,20.26
2018-06-05T22:51:01.267Z,20.47
2018-06-05T22:53:34.127Z,20.59
2018-06-05T22:56:14.162Z,20.77
2018-06-05T22:58:48.119Z,20.94
2018-06-05T23:01:29.629Z,21.04
2018-06-05T23:04:03.281Z,20.59
2018-06-05T23:06:45.950Z,20.30
2018-06-05T23:09:25.868Z,20.33
2018-06-05T23:12:08.931Z,20.24
2018-06-05T23:14:42.583Z,20.16
2018-06-05T23:17:17.880Z,20.09
2018-06-05T23:19:55.190Z,20.03
2018-06-05T23:22:25.836Z,19.88
2018-06-05T23:25:01.183Z,19.65
2018-06-05T23:27:43.474Z,19.52
2018-06-05T23:30:18.321Z,19.34
2018-06-05T23:32:54.477Z,19.18
2018-06-05T23:35:40.876Z,19.06
2018-06-05T23:38:26.399Z,18.99
2018-06-05T23:41:07.889Z,18.99
2018-06-05T23:43:39.595Z,18.97
2018-06-05T23:46:21.950Z,18.93
2018-06-05T23:48:54.021Z,18.89
2018-06-05T23:51:41.251Z,18.85
2018-06-05T23:54:16.803Z,18.78
2018-06-05T23:56:58.473Z,18.73
2018-06-05T23:59:34.634Z,18.60
